Time;durP1;ratioP1;P1;durP2;ratioP2;P2;SDS_P1;SDS_P2;PMS_P1;PMS_P2;Temp;Humidity;BMP_temperature;BMP_pressure;BME280_temperature;BME280_humidity;BME280_pressure;Samples;Min_cycle;Max_cycle;Signal;HPM_P1;HPM_P2
2022/08/13 00:00:50;;;;;;;0.17;0.17;;;;;;;15.76;100.00;101678.66;10450589;28;20102;-76
2022/08/13 00:05:54;;;;;;;0.08;0.08;;;;;;;15.59;100.00;101686.16;10451047;28;20169;-77
2022/08/13 00:10:55;;;;;;;0.00;0.00;;;;;;;15.30;100.00;101690.84;10449124;28;20052;-76
2022/08/13 00:16:01;;;;;;;0.05;0.05;;;;;;;15.33;100.00;101680.50;10455439;28;20064;-76
2022/08/13 00:21:04;;;;;;;2.20;0.65;;;;;;;15.40;100.00;101677.16;10429361;28;20068;-76
2022/08/13 00:26:11;;;;;;;0.00;0.00;;;;;;;15.37;100.00;101671.94;10449966;28;20135;-76
2022/08/13 00:31:17;;;;;;;2.65;0.30;;;;;;;15.66;100.00;101674.16;10449605;28;20073;-76
2022/08/13 00:36:23;;;;;;;0.45;0.25;;;;;;;15.74;100.00;101680.38;10449710;28;20155;-76
2022/08/13 00:41:42;;;;;;;0.25;0.20;;;;;;;15.93;100.00;101668.59;10435317;28;20053;-83
2022/08/13 00:52:38;;;;;;;0.40;0.35;;;;;;;15.74;100.00;101669.97;10447783;28;20056;-82
2022/08/13 00:57:40;;;;;;;0.30;0.20;;;;;;;15.93;100.00;101668.59;10443647;28;20061;-81
2022/08/13 01:02:47;;;;;;;0.10;0.08;;;;;;;15.85;100.00;101670.19;10445342;28;20040;-82
2022/08/13 01:07:58;;;;;;;0.55;0.05;;;;;;;15.83;100.00;101672.75;10424332;28;20148;-82
2022/08/13 01:13:01;;;;;;;0.30;0.10;;;;;;;15.45;100.00;101665.13;10437261;28;20500;-77
2022/08/13 01:18:02;;;;;;;0.13;0.10;;;;;;;15.07;100.00;101673.97;10444674;28;20529;-76
2022/08/13 01:23:09;;;;;;;0.20;0.10;;;;;;;15.05;100.00;101674.78;10444201;28;20117;-76
2022/08/13 01:28:13;;;;;;;0.00;0.00;;;;;;;14.91;100.00;101672.78;10409180;28;20382;-77
2022/08/13 01:33:17;;;;;;;0.08;0.08;;;;;;;14.95;100.00;101678.91;10432999;28;20029;-77
2022/08/13 01:38:22;;;;;;;0.20;0.20;;;;;;;14.98;100.00;101672.91;10426255;28;20049;-77
2022/08/13 01:43:30;;;;;;;0.30;0.30;;;;;;;14.72;100.00;101676.72;10426090;28;20412;-77
2022/08/13 01:54:01;;;;;;;0.00;0.00;;;;;;;14.46;100.00;101689.09;10475396;28;20053;-77
2022/08/13 01:59:24;;;;;;;1.38;1.08;;;;;;;13.99;100.00;101689.72;10462238;28;20044;-78
2022/08/13 02:04:46;;;;;;;0.20;0.20;;;;;;;13.94;100.00;101699.97;10454553;28;20041;-77
2022/08/13 02:10:02;;;;;;;0.10;0.10;;;;;;;13.81;100.00;101687.56;10440376;28;20561;-77
2022/08/13 02:15:05;;;;;;;0.10;0.10;;;;;;;13.87;100.00;101685.13;10439157;28;20408;-78
2022/08/13 02:20:17;;;;;;;0.50;0.30;;;;;;;13.78;100.00;101692.66;10454917;28;20048;-78
2022/08/13 02:25:22;;;;;;;0.38;0.05;;;;;;;13.58;100.00;101699.91;10455506;28;20060;-78
2022/08/13 02:30:27;;;;;;;0.10;0.10;;;;;;;13.64;100.00;101705.22;10455113;28;20041;-78
2022/08/13 02:35:29;;;;;;;0.22;0.10;;;;;;;13.54;100.00;101709.31;10471354;28;20048;-77
2022/08/13 02:46:17;;;;;;;3.25;0.35;;;;;;;13.41;100.00;101702.91;10456042;28;20032;-78
2022/08/13 02:51:23;;;;;;;0.32;0.25;;;;;;;13.37;100.00;101703.66;10455826;28;20044;-76
2022/08/13 02:56:44;;;;;;;0.35;0.35;;;;;;;13.31;100.00;101730.22;10452392;28;20047;-78
2022/08/13 03:01:51;;;;;;;0.00;0.00;;;;;;;13.00;100.00;101737.09;10436075;28;20554;-77
2022/08/13 03:06:57;;;;;;;1.00;0.30;;;;;;;13.05;100.00;101719.13;10454014;28;20411;-77
2022/08/13 03:12:04;;;;;;;0.65;0.57;;;;;;;13.09;100.00;101740.78;10436254;28;20098;-77
2022/08/13 03:17:10;;;;;;;0.10;0.10;;;;;;;13.19;100.00;101732.47;10455011;28;20048;-77
2022/08/13 03:22:24;;;;;;;0.57;0.28;;;;;;;13.09;100.00;101735.63;10453408;28;20072;-77
2022/08/13 03:27:27;;;;;;;0.10;0.10;;;;;;;13.06;100.00;101757.13;10453021;28;20047;-77
2022/08/13 03:32:40;;;;;;;2.15;0.82;;;;;;;13.07;100.00;101755.41;10463826;28;20037;-77
2022/08/13 03:37:53;;;;;;;0.10;0.10;;;;;;;12.97;100.00;101737.03;10449559;28;20045;-77
2022/08/13 03:43:08;;;;;;;0.40;0.30;;;;;;;12.89;100.00;101751.44;10452943;28;20067;-75
2022/08/13 03:48:17;;;;;;;0.63;0.57;;;;;;;12.84;100.00;101761.66;10458910;28;20044;-76
2022/08/13 03:53:20;;;;;;;0.30;0.28;;;;;;;12.82;100.00;101741.75;10458487;28;20052;-76
2022/08/13 03:58:57;;;;;;;0.25;0.10;;;;;;;12.75;100.00;101750.16;10458432;28;20065;-76
2022/08/13 04:04:02;;;;;;;0.15;0.15;;;;;;;12.54;100.00;101756.41;10458420;28;20444;-76
2022/08/13 04:09:05;;;;;;;0.35;0.30;;;;;;;12.41;100.00;101749.97;10441434;28;20049;-75
2022/08/13 04:14:15;;;;;;;0.10;0.10;;;;;;;12.52;100.00;101742.56;10458064;28;20045;-76
2022/08/13 04:19:38;;;;;;;0.10;0.10;;;;;;;12.49;100.00;101758.84;10443703;28;20044;-76
2022/08/13 04:24:42;;;;;;;0.70;0.55;;;;;;;12.71;100.00;101749.19;10457181;28;20053;-76
2022/08/13 04:29:43;;;;;;;0.52;0.32;;;;;;;12.77;100.00;101745.91;10457004;28;20476;-75
2022/08/13 04:34:51;;;;;;;0.45;0.43;;;;;;;12.32;100.00;101771.22;10441206;28;20102;-76
2022/08/13 04:39:59;;;;;;;0.47;0.47;;;;;;;12.37;100.00;101865.28;10456890;28;20055;-76
2022/08/13 04:45:13;;;;;;;0.40;0.40;;;;;;;12.36;100.00;101801.50;10456859;28;20048;-75
2022/08/13 04:50:16;;;;;;;0.63;0.60;;;;;;;12.45;100.00;101774.22;10458149;28;20049;-75
2022/08/13 04:55:20;;;;;;;0.98;0.60;;;;;;;12.62;100.00;101788.53;10440248;28;20071;-76
2022/08/13 05:00:24;;;;;;;0.20;0.20;;;;;;;12.64;100.00;101771.38;10457468;28;20538;-76
2022/08/13 05:05:26;;;;;;;0.20;0.20;;;;;;;12.85;100.00;101788.38;10456038;28;20044;-75
2022/08/13 05:10:45;;;;;;;0.38;0.17;;;;;;;13.22;100.00;101792.06;10439535;28;20049;-76
2022/08/13 05:15:46;;;;;;;0.28;0.28;;;;;;;13.38;100.00;101789.91;10456288;28;20053;-75
2022/08/13 05:20:52;;;;;;;0.68;0.43;;;;;;;13.55;100.00;101786.13;10456326;28;20041;-76
2022/08/13 05:25:54;;;;;;;0.57;0.57;;;;;;;13.78;100.00;101752.22;10448271;28;20056;-75
2022/08/13 05:31:19;;;;;;;0.30;0.20;;;;;;;14.13;100.00;101762.59;10464618;28;20370;-75
2022/08/13 05:36:28;;;;;;;0.25;0.20;;;;;;;14.23;100.00;101769.78;10463979;28;20053;-76
2022/08/13 05:41:50;;;;;;;0.45;0.45;;;;;;;14.47;100.00;101766.03;10465594;28;20068;-76
2022/08/13 05:47:09;;;;;;;0.52;0.20;;;;;;;15.00;100.00;101749.94;10463501;28;20072;-75
2022/08/13 05:52:16;;;;;;;0.88;0.47;;;;;;;15.45;100.00;101735.25;10463142;28;20507;-76
2022/08/13 06:04:14;;;;;;;0.22;0.22;;;;;;;17.03;100.00;101701.34;10463400;28;20556;-77
2022/08/13 06:09:36;;;;;;;0.40;0.40;;;;;;;16.99;100.00;101701.28;10468494;28;20041;-78
2022/08/13 06:14:45;;;;;;;0.55;0.55;;;;;;;17.44;100.00;101693.13;10479385;28;20040;-79
2022/08/13 06:19:59;;;;;;;2.10;1.00;;;;;;;17.39;100.00;101702.59;10479369;28;20075;-79
2022/08/13 06:25:06;;;;;;;2.33;1.20;;;;;;;17.75;100.00;101700.34;10465765;28;20530;-78
2022/08/13 06:30:12;;;;;;;0.75;0.20;;;;;;;17.86;100.00;101687.38;10477042;28;20061;-80
2022/08/13 06:35:31;;;;;;;1.10;0.85;;;;;;;18.41;100.00;101693.91;10473514;28;20040;-79
2022/08/13 06:56:00;;;;;;;0.88;0.45;;;;;;;20.07;100.00;101685.66;10388101;28;20044;-81
2022/08/13 07:01:24;;;;;;;0.30;0.30;;;;;;;20.58;100.00;101696.03;10460519;28;20472;-80
2022/08/13 07:06:28;;;;;;;1.75;0.50;;;;;;;21.33;100.00;101688.69;10463997;28;20056;-81
2022/08/13 07:12:27;;;;;;;1.20;0.43;;;;;;;22.22;100.00;101686.25;10460534;28;20043;-82
2022/08/13 07:24:53;;;;;;;0.30;0.22;;;;;;;23.49;78.20;101689.06;10441113;28;20033;-78
2022/08/13 07:30:00;;;;;;;0.28;0.20;;;;;;;24.24;80.38;101694.81;10469006;28;20455;-80
2022/08/13 07:42:13;;;;;;;0.20;0.20;;;;;;;25.34;72.84;101674.97;10409399;28;20103;-76
2022/08/13 07:47:21;;;;;;;;;;;;;;;25.84;69.27;101683.47;10433596;28;20138;-79
2022/08/13 07:52:27;;;;;;;0.10;0.10;;;;;;;25.74;60.76;101693.38;10440739;28;19925;-77
2022/08/13 07:57:32;;;;;;;0.20;0.13;;;;;;;26.67;58.59;101681.19;10457883;28;20056;-77
2022/08/13 08:02:40;;;;;;;0.10;0.10;;;;;;;26.20;55.91;101692.19;10431538;28;20122;-77
2022/08/13 08:07:50;;;;;;;0.10;0.10;;;;;;;27.07;60.00;101681.78;10445876;28;20045;-80
2022/08/13 08:13:12;;;;;;;0.30;0.30;;;;;;;27.22;51.12;101685.75;10447911;28;20095;-76
2022/08/13 08:18:18;;;;;;;0.32;0.20;;;;;;;27.20;49.05;101682.28;10440148;28;20103;-79
2022/08/13 08:23:40;;;;;;;0.43;0.35;;;;;;;27.51;45.62;101684.84;10448509;28;20037;-77
2022/08/13 08:28:50;;;;;;;0.10;0.10;;;;;;;27.54;43.65;101687.38;10444138;28;20044;-76
2022/08/13 08:33:55;;;;;;;0.20;0.20;;;;;;;28.16;43.82;101693.25;10448303;28;20068;-79
2022/08/13 08:44:24;;;;;;;0.30;0.30;;;;;;;28.64;38.78;101685.31;10443859;28;20045;-78
2022/08/13 08:49:26;;;;;;;0.20;0.00;;;;;;;28.83;41.16;101682.84;10450041;28;20053;-78
2022/08/13 08:54:45;;;;;;;0.17;0.17;;;;;;;29.40;41.85;101679.75;10448829;28;20875;-78
2022/08/13 08:59:48;;;;;;;0.30;0.20;;;;;;;29.64;37.78;101680.50;10441359;28;20037;-78
2022/08/13 09:04:55;;;;;;;0.10;0.10;;;;;;;29.44;37.86;101678.69;10446285;28;20381;-80
2022/08/13 09:10:09;;;;;;;0.45;0.10;;;;;;;29.50;37.22;101677.59;10430882;28;20037;-81
2022/08/13 09:15:17;;;;;;;0.85;0.40;;;;;;;29.63;36.74;101670.81;10431749;28;20037;-77
2022/08/13 09:20:28;;;;;;;0.10;0.10;;;;;;;30.25;34.28;101672.59;10428333;28;20080;-78
2022/08/13 09:25:31;;;;;;;0.10;0.10;;;;;;;30.23;33.35;101672.69;10431755;28;20059;-78
2022/08/13 09:30:48;;;;;;;0.60;0.45;;;;;;;30.50;32.45;101667.03;10435969;28;20068;-81
2022/08/13 09:35:53;;;;;;;0.10;0.10;;;;;;;30.75;33.39;101658.81;10432734;28;20045;-79
2022/08/13 09:41:27;;;;;;;0.38;0.38;;;;;;;30.45;35.21;101661.94;10423374;28;20056;-79
2022/08/13 09:46:34;;;;;;;0.15;0.05;;;;;;;30.69;33.99;101654.66;10420591;28;20100;-80
2022/08/13 09:51:36;;;;;;;0.03;0.03;;;;;;;30.79;32.92;101654.22;10423983;28;20045;-78
2022/08/13 09:56:58;;;;;;;0.20;0.20;;;;;;;31.19;32.58;101651.44;10428279;28;20044;-81
2022/08/13 10:02:05;;;;;;;0.20;0.20;;;;;;;31.07;31.78;101647.53;10423219;28;20064;-79
2022/08/13 10:07:11;;;;;;;0.45;0.40;;;;;;;31.23;29.94;101640.56;10433935;28;20534;-79
2022/08/13 10:12:22;;;;;;;0.10;0.10;;;;;;;31.08;27.95;101643.97;10460851;28;20041;-82
2022/08/13 10:17:26;;;;;;;0.20;0.10;;;;;;;31.07;30.00;101637.75;10439051;28;20128;-82
2022/08/13 10:22:49;;;;;;;0.30;0.13;;;;;;;31.46;30.55;101633.22;10457475;28;20040;-79
2022/08/13 10:27:56;;;;;;;0.13;0.13;;;;;;;31.34;29.46;101621.41;10450495;28;20049;-80
2022/08/13 10:32:58;;;;;;;0.20;0.13;;;;;;;30.96;27.61;101619.66;10445828;28;20124;-79
2022/08/13 10:38:05;;;;;;;0.25;0.20;;;;;;;31.08;26.86;101614.69;10446097;28;20099;-79
2022/08/13 10:43:10;;;;;;;0.15;0.15;;;;;;;31.69;26.98;101628.50;10469362;28;20435;-77
2022/08/13 10:48:19;;;;;;;0.00;0.00;;;;;;;31.84;26.93;101611.72;10453714;28;20048;-79
2022/08/13 10:58:43;;;;;;;0.00;0.00;;;;;;;31.63;28.05;101609.22;10463217;28;20045;-78
2022/08/13 11:03:57;;;;;;;0.00;0.00;;;;;;;31.30;27.20;101604.72;10453258;28;20033;-81
2022/08/13 11:09:10;;;;;;;0.10;0.10;;;;;;;31.77;27.11;101595.22;10453577;28;20041;-79
2022/08/13 11:14:28;;;;;;;0.17;0.15;;;;;;;31.60;28.07;101604.06;10453278;28;20047;-78
2022/08/13 11:19:40;;;;;;;0.00;0.00;;;;;;;31.87;27.33;101603.59;10466357;28;20082;-78
2022/08/13 11:24:55;;;;;;;0.00;0.00;;;;;;;31.92;28.58;101593.53;10450315;28;20224;-78
2022/08/13 11:29:58;;;;;;;0.10;0.10;;;;;;;31.62;24.96;101596.84;10452341;28;20395;-78
2022/08/13 11:35:03;;;;;;;0.20;0.20;;;;;;;31.57;25.29;101587.41;10447596;28;20048;-78
2022/08/13 11:40:11;;;;;;;0.10;0.10;;;;;;;31.89;25.31;101577.72;10457593;28;20505;-80
2022/08/13 11:45:34;;;;;;;0.17;0.05;;;;;;;31.64;24.21;101576.31;10463453;28;20159;-76
2022/08/13 11:50:46;;;;;;;0.30;0.30;;;;;;;31.62;25.13;101570.22;10458290;28;20123;-79
2022/08/13 11:55:49;;;;;;;0.10;0.10;;;;;;;31.58;24.32;101573.13;10444018;28;20496;-80
2022/08/13 12:01:06;;;;;;;0.55;0.52;;;;;;;32.14;24.31;101560.38;10448113;28;20041;-78
2022/08/13 12:06:16;;;;;;;0.38;0.20;;;;;;;31.68;24.86;101552.25;10444502;28;20091;-79
2022/08/13 12:11:47;;;;;;;0.40;0.30;;;;;;;31.75;24.70;101553.63;10446381;28;20045;-79
2022/08/13 12:17:08;;;;;;;0.10;0.10;;;;;;;31.64;25.96;101549.69;10443783;28;20480;-78
2022/08/13 12:22:12;;;;;;;0.05;0.05;;;;;;;31.76;25.49;101536.72;10441831;28;20041;-78
2022/08/13 12:27:14;;;;;;;0.57;0.10;;;;;;;31.73;26.39;101539.53;10445078;28;20102;-80
2022/08/13 12:32:17;;;;;;;0.30;0.30;;;;;;;31.48;26.21;101536.34;10444247;28;20065;-79
2022/08/13 12:37:22;;;;;;;0.32;0.15;;;;;;;31.89;26.85;101534.22;10457092;28;20132;-76
2022/08/13 12:42:27;;;;;;;0.38;0.20;;;;;;;31.59;24.11;101527.78;10438401;28;20063;-75
2022/08/13 12:47:31;;;;;;;0.00;0.00;;;;;;;32.14;26.14;101525.72;10435070;28;20049;-78
2022/08/13 12:52:41;;;;;;;0.00;0.00;;;;;;;31.89;26.72;101516.44;10437738;28;20514;-80
2022/08/13 12:57:45;;;;;;;0.20;0.20;;;;;;;31.94;25.67;101509.06;10467244;28;20084;-77
2022/08/13 13:03:08;;;;;;;0.10;0.10;;;;;;;31.99;26.26;101502.59;10453553;28;20539;-76
2022/08/13 13:08:28;;;;;;;0.43;0.30;;;;;;;31.88;26.47;101505.84;10437716;28;20057;-77
2022/08/13 13:13:37;;;;;;;0.20;0.20;;;;;;;31.86;25.42;101503.28;10454938;28;20382;-77
2022/08/13 13:18:59;;;;;;;0.47;0.17;;;;;;;31.96;25.94;101493.84;10450680;28;20041;-78
2022/08/13 13:24:03;;;;;;;0.00;0.00;;;;;;;32.01;26.79;101482.06;10437200;28;20033;-78
2022/08/13 13:29:11;;;;;;;0.15;0.10;;;;;;;31.50;27.19;101485.66;10442586;28;20045;-78
2022/08/13 13:34:17;;;;;;;0.13;0.10;;;;;;;31.49;26.60;101478.59;10445228;28;20068;-79
2022/08/13 13:39:24;;;;;;;0.22;0.22;;;;;;;31.84;27.21;101475.84;10438334;28;20532;-79
2022/08/13 13:44:27;;;;;;;0.32;0.30;;;;;;;31.48;30.73;101477.75;10463736;28;20056;-79
2022/08/13 13:49:40;;;;;;;0.45;0.15;;;;;;;31.61;27.86;101466.44;10452757;28;20045;-78
2022/08/13 13:54:44;;;;;;;0.45;0.30;;;;;;;31.42;28.34;101458.59;10466386;28;20103;-79
2022/08/13 14:00:04;;;;;;;0.10;0.10;;;;;;;31.60;28.45;101456.72;10465085;28;20041;-79
2022/08/13 14:05:08;;;;;;;0.22;0.10;;;;;;;31.20;28.19;101450.91;10461073;28;20136;-79
2022/08/13 14:10:24;;;;;;;0.30;0.10;;;;;;;31.63;27.97;101444.09;10453463;28;20061;-79
2022/08/13 14:15:33;;;;;;;0.20;0.20;;;;;;;31.57;27.40;101440.94;10448867;28;20052;-78
2022/08/13 14:20:38;;;;;;;0.30;0.30;;;;;;;31.45;26.88;101439.78;10439838;28;20072;-79
2022/08/13 14:25:48;;;;;;;0.30;0.13;;;;;;;31.29;27.44;101434.41;10451579;28;20139;-81
2022/08/13 14:30:57;;;;;;;0.10;0.10;;;;;;;31.18;30.33;101427.00;10447194;28;20038;-79
2022/08/13 14:36:01;;;;;;;0.43;0.22;;;;;;;31.14;27.73;101418.31;10463510;28;20140;-78
2022/08/13 14:41:06;;;;;;;0.40;0.13;;;;;;;31.42;28.66;101415.97;10460563;28;20056;-77
2022/08/13 14:46:18;;;;;;;0.10;0.10;;;;;;;31.45;29.59;101402.53;10433139;28;20044;-79
2022/08/13 14:51:21;;;;;;;0.20;0.20;;;;;;;31.27;27.09;101396.41;10449486;28;20090;-79
2022/08/13 14:56:25;;;;;;;2.72;0.70;;;;;;;31.43;26.74;101396.41;10462215;28;20037;-79
2022/08/13 15:01:33;;;;;;;0.30;0.10;;;;;;;31.30;26.32;101382.91;10466484;28;20045;-80
2022/08/13 15:06:42;;;;;;;0.80;0.57;;;;;;;31.69;27.58;101375.47;10474049;28;20580;-79
2022/08/13 15:11:57;;;;;;;0.35;0.30;;;;;;;31.38;27.78;101369.19;10455178;28;20057;-79
2022/08/13 15:17:03;;;;;;;0.30;0.30;;;;;;;31.42;27.17;101358.28;10454117;28;20045;-77
2022/08/13 15:22:07;;;;;;;0.00;0.00;;;;;;;31.38;28.88;101358.53;10451526;28;20049;-78
2022/08/13 15:34:01;;;;;;;1.00;0.35;;;;;;;31.07;27.69;101354.84;10481358;28;20040;-78
2022/08/13 15:39:03;;;;;;;0.10;0.10;;;;;;;30.96;27.59;101353.59;10456754;28;20052;-78
2022/08/13 15:44:06;;;;;;;0.10;0.10;;;;;;;31.15;29.73;101350.00;10440782;28;20466;-76
2022/08/13 15:49:15;;;;;;;0.20;0.20;;;;;;;31.16;29.69;101333.09;10461212;28;20106;-77
2022/08/13 15:54:19;;;;;;;0.20;0.20;;;;;;;31.24;28.87;101330.84;10458495;28;20103;-78
2022/08/13 15:59:30;;;;;;;0.38;0.20;;;;;;;31.06;29.50;101321.19;10457688;28;20603;-77
2022/08/13 16:04:49;;;;;;;0.20;0.10;;;;;;;30.95;29.01;101311.97;10456507;28;20048;-77
2022/08/13 16:09:50;;;;;;;0.08;0.08;;;;;;;30.97;28.72;101312.75;10457439;28;20067;-79
2022/08/13 16:14:53;;;;;;;0.20;0.20;;;;;;;30.93;29.32;101297.94;10456628;28;20041;-78
2022/08/13 16:19:56;;;;;;;0.43;0.30;;;;;;;30.96;29.92;101288.91;10454680;28;20049;-77
2022/08/13 16:24:58;;;;;;;0.28;0.10;;;;;;;30.72;29.29;101293.75;10450629;28;20094;-78
2022/08/13 16:30:03;;;;;;;0.20;0.20;;;;;;;30.63;28.68;101288.00;10454515;28;20044;-78
2022/08/13 16:35:08;;;;;;;0.63;0.40;;;;;;;30.75;29.65;101282.94;10453119;28;20672;-77
2022/08/13 16:40:19;;;;;;;0.20;0.20;;;;;;;30.74;29.53;101267.91;10454032;28;20149;-77
2022/08/13 16:45:24;;;;;;;0.43;0.38;;;;;;;30.58;28.98;101268.75;10454460;28;20062;-77
2022/08/13 16:50:44;;;;;;;0.00;0.00;;;;;;;30.49;30.04;101262.09;10456305;28;20049;-77
2022/08/13 16:56:05;;;;;;;0.73;0.55;;;;;;;30.53;30.04;101254.84;10435187;28;20511;-77
2022/08/13 17:01:10;;;;;;;0.20;0.20;;;;;;;30.51;30.78;101256.72;10453917;28;20069;-77
2022/08/13 17:11:48;;;;;;;0.32;0.20;;;;;;;30.35;31.56;101246.84;10447853;28;20060;-76
2022/08/13 17:16:58;;;;;;;0.35;0.35;;;;;;;30.17;31.21;101247.81;10442628;28;20480;-76
2022/08/13 17:22:00;;;;;;;0.00;0.00;;;;;;;30.18;32.27;101249.53;10451170;28;20132;-77
2022/08/13 17:27:04;;;;;;;0.30;0.20;;;;;;;30.02;33.52;101255.63;10446062;28;20045;-77
2022/08/13 17:32:10;;;;;;;1.40;0.47;;;;;;;29.92;34.28;101251.72;10447237;28;20055;-76
2022/08/13 17:37:14;;;;;;;0.30;0.20;;;;;;;29.90;35.35;101242.91;10462616;28;20045;-78
2022/08/13 17:42:18;;;;;;;0.00;0.00;;;;;;;29.71;34.60;101246.50;10469835;28;20041;-77
2022/08/13 17:47:41;;;;;;;0.57;0.40;;;;;;;29.56;35.46;101249.91;10439746;28;20037;-78
2022/08/13 17:53:06;;;;;;;0.38;0.20;;;;;;;29.39;34.92;101243.63;10468597;28;20407;-79
2022/08/13 17:58:09;;;;;;;0.13;0.13;;;;;;;29.15;36.68;101245.63;10453683;28;20076;-78
2022/08/13 18:03:15;;;;;;;1.38;0.40;;;;;;;29.12;36.69;101243.09;10440071;28;20034;-77
2022/08/13 18:08:17;;;;;;;0.88;0.45;;;;;;;28.87;39.65;101238.09;10456030;28;20055;-78
2022/08/13 18:13:21;;;;;;;0.10;0.10;;;;;;;28.65;40.21;101239.91;10434885;28;20048;-77
2022/08/13 18:18:44;;;;;;;0.10;0.10;;;;;;;28.30;41.78;101247.59;10443646;28;20049;-79
2022/08/13 18:23:50;;;;;;;0.30;0.13;;;;;;;28.16;42.30;101237.63;10441420;28;20056;-78
2022/08/13 18:28:55;;;;;;;0.10;0.10;;;;;;;27.68;51.27;101236.94;10450896;28;20076;-78
2022/08/13 18:33:57;;;;;;;0.00;0.00;;;;;;;27.27;54.25;101242.06;10473418;28;20050;-77
2022/08/13 18:39:22;;;;;;;0.22;0.22;;;;;;;26.70;54.04;101238.88;10460917;28;20435;-78
2022/08/13 18:44:25;;;;;;;1.45;0.55;;;;;;;26.16;70.12;101252.22;10459694;28;20036;-78
2022/08/13 18:49:39;;;;;;;0.00;0.00;;;;;;;25.72;80.86;101243.97;10435313;28;20392;-76
2022/08/13 18:54:52;;;;;;;0.20;0.20;;;;;;;25.36;78.79;101245.03;10442950;28;20076;-78
2022/08/13 18:59:56;;;;;;;0.00;0.00;;;;;;;25.03;82.16;101243.38;10453233;28;20080;-79
2022/08/13 19:05:05;;;;;;;0.52;0.10;;;;;;;24.67;83.13;101235.63;10453609;28;20162;-77
2022/08/13 19:10:25;;;;;;;0.20;0.20;;;;;;;24.42;84.03;101245.94;10446937;28;20041;-77
2022/08/13 19:15:33;;;;;;;0.10;0.10;;;;;;;24.05;79.54;101253.00;10453856;28;20545;-79
2022/08/13 19:20:37;;;;;;;0.10;0.10;;;;;;;23.61;78.32;101252.25;10451107;28;20095;-79
2022/08/13 19:25:40;;;;;;;0.13;0.13;;;;;;;23.52;84.30;101252.47;10448031;28;20045;-80
2022/08/13 19:30:59;;;;;;;0.17;0.10;;;;;;;22.88;87.57;101255.56;10454839;28;20086;-77
2022/08/13 19:36:02;;;;;;;0.45;0.38;;;;;;;22.99;85.48;101258.81;10453764;28;20110;-77
2022/08/13 19:41:21;;;;;;;0.08;0.08;;;;;;;22.54;100.00;101261.44;10459677;28;20527;-78
2022/08/13 19:46:35;;;;;;;0.43;0.35;;;;;;;22.29;100.00;101265.34;10428497;28;20047;-78
2022/08/13 19:51:38;;;;;;;0.35;0.35;;;;;;;22.06;100.00;101265.72;10433969;28;20053;-77
2022/08/13 19:56:51;;;;;;;0.13;0.13;;;;;;;21.72;100.00;101266.25;10446088;28;20033;-80
2022/08/13 20:01:56;;;;;;;0.40;0.20;;;;;;;21.70;100.00;101268.03;10444184;28;20139;-78
2022/08/13 20:06:58;;;;;;;0.00;0.00;;;;;;;21.22;100.00;101276.53;10446206;28;20057;-78
2022/08/13 20:12:00;;;;;;;0.40;0.30;;;;;;;21.04;100.00;101278.47;10454713;28;20092;-79
2022/08/13 20:17:01;;;;;;;0.85;0.15;;;;;;;21.11;100.00;101268.75;10440272;28;20038;-78
2022/08/13 20:22:04;;;;;;;0.20;0.20;;;;;;;20.89;100.00;101271.63;10441005;28;20068;-78
2022/08/13 20:27:11;;;;;;;0.88;0.52;;;;;;;20.70;100.00;101273.56;10465037;28;20041;-77
2022/08/13 20:32:33;;;;;;;0.30;0.17;;;;;;;20.37;100.00;101264.28;10461906;28;20539;-77
2022/08/13 20:37:38;;;;;;;0.80;0.30;;;;;;;20.33;100.00;101273.06;10437170;28;20136;-78
2022/08/13 20:42:55;;;;;;;0.50;0.50;;;;;;;20.14;100.00;101273.22;10455986;28;20132;-78
2022/08/13 20:47:56;;;;;;;0.00;0.00;;;;;;;20.22;100.00;101274.00;10452884;28;20040;-78
2022/08/13 20:53:17;;;;;;;1.17;0.50;;;;;;;20.04;100.00;101279.41;10440484;22;20034;-80
2022/08/13 20:58:21;;;;;;;0.38;0.38;;;;;;;19.71;100.00;101278.69;10431867;28;20080;-79
2022/08/13 21:03:42;;;;;;;1.13;0.55;;;;;;;19.82;100.00;101271.69;10432462;28;20476;-78
2022/08/13 21:08:45;;;;;;;2.90;0.43;;;;;;;19.61;100.00;101273.56;10438677;28;20049;-80
2022/08/13 21:13:54;;;;;;;0.40;0.27;;;;;;;19.47;100.00;101265.78;10399749;28;20129;-78
2022/08/13 21:18:58;;;;;;;0.20;0.20;;;;;;;19.56;100.00;101264.00;10390211;28;20473;-77
2022/08/13 21:24:23;;;;;;;1.02;0.70;;;;;;;19.34;100.00;101270.19;10403647;28;20542;-77
2022/08/13 21:29:33;;;;;;;0.65;0.50;;;;;;;19.26;100.00;101266.75;10383874;28;20073;-78
2022/08/13 21:34:42;;;;;;;0.75;0.52;;;;;;;19.38;100.00;101257.13;10398201;28;20105;-77
2022/08/13 21:39:48;;;;;;;0.82;0.52;;;;;;;19.24;100.00;101263.28;10398793;28;20049;-77
2022/08/13 21:44:50;;;;;;;1.05;0.80;;;;;;;19.43;100.00;101264.06;10387097;28;20049;-79
2022/08/13 21:49:52;;;;;;;0.20;0.10;;;;;;;19.17;100.00;101261.56;10394453;28;20508;-81
2022/08/13 21:54:54;;;;;;;0.10;0.10;;;;;;;19.24;100.00;101265.91;10386225;28;20068;-77
2022/08/13 21:59:59;;;;;;;0.20;0.10;;;;;;;19.39;100.00;101264.09;10384760;28;20057;-77
2022/08/13 22:05:02;;;;;;;0.50;0.30;;;;;;;19.34;100.00;101259.75;10403306;28;20521;-78
2022/08/13 22:10:05;;;;;;;0.57;0.50;;;;;;;19.36;100.00;101257.09;10401288;28;20080;-79
2022/08/13 22:15:12;;;;;;;0.68;0.45;;;;;;;19.75;100.00;101255.16;10398563;28;20140;-78
2022/08/13 22:20:16;;;;;;;0.82;0.60;;;;;;;20.31;100.00;101249.53;10419174;28;20124;-77
2022/08/13 22:25:19;;;;;;;0.95;0.90;;;;;;;20.57;100.00;101251.91;10397435;28;20054;-78
2022/08/13 22:35:53;;;;;;;6.35;1.15;;;;;;;21.47;100.00;101250.84;10398582;28;20437;-79
2022/08/13 22:40:59;;;;;;;1.27;0.50;;;;;;;21.36;100.00;101242.25;10395749;28;20049;-78
2022/08/13 22:46:01;;;;;;;1.17;0.80;;;;;;;21.40;100.00;101243.97;10400568;28;20050;-77
2022/08/13 22:51:06;;;;;;;1.38;0.85;;;;;;;21.05;100.00;101237.41;10395338;28;20041;-76
2022/08/13 22:56:08;;;;;;;0.65;0.50;;;;;;;21.24;100.00;101245.91;10415139;28;20096;-78
2022/08/13 23:01:15;;;;;;;1.00;0.63;;;;;;;20.87;100.00;101241.13;10416921;28;20523;-79
2022/08/13 23:06:20;;;;;;;1.02;0.70;;;;;;;20.79;100.00;101233.38;10413172;28;20131;-78
2022/08/13 23:11:41;;;;;;;0.98;0.60;;;;;;;20.75;100.00;101235.16;10414888;28;20083;-77
2022/08/13 23:16:43;;;;;;;0.50;0.43;;;;;;;20.58;100.00;101232.69;10409578;28;20484;-78
2022/08/13 23:21:46;;;;;;;0.85;0.65;;;;;;;20.48;100.00;101228.44;10413782;28;20049;-79
2022/08/13 23:26:48;;;;;;;1.02;0.75;;;;;;;20.30;100.00;101232.09;10409566;28;20084;-77
2022/08/13 23:31:53;;;;;;;0.70;0.65;;;;;;;20.14;100.00;101226.16;10412629;28;20041;-78
2022/08/13 23:36:59;;;;;;;2.72;0.57;;;;;;;20.21;100.00;101217.38;10412070;28;20041;-78
2022/08/13 23:42:01;;;;;;;0.75;0.75;;;;;;;20.18;100.00;101204.28;10411853;28;20562;-77
2022/08/13 23:47:03;;;;;;;0.63;0.32;;;;;;;20.03;100.00;101204.44;10409686;28;20060;-78
2022/08/13 23:52:05;;;;;;;0.98;0.32;;;;;;;19.90;100.00;101201.94;10411476;28;20073;-78
2022/08/13 23:57:12;;;;;;;0.75;0.45;;;;;;;20.27;100.00;101198.97;10410435;28;20083;-78
